METAR Data
IDs: Format: Raw Decoded Include TAF

Data at: 0614 UTC 24 Sep 2018

KASG 240148Z 08005KT 10SM OVC012 20/19 A2999
KASG 240048Z 08005KT 10SM OVC015 20/19 A2998
KASG 232348Z 10005KT 10SM OVC018 21/19 A2997
KASG 232248Z 10007KT 10SM OVC019 22/19 A2998
KASG 232148Z 10007KT 10SM OVC020 22/18 A2998
KASG 232048Z 11008KT 10SM BKN019 23/18 A2999
KASG 231948Z 07008KT 10SM BKN019 OVC043 22/18 A3001
KASG 231848Z 09009KT 10SM BKN017 BKN025 OVC048 21/18 A3004
KASG 231748Z 10008KT 10SM OVC014 20/18 A3007
KASG 231648Z 10007KT 10SM OVC013 19/18 A3008
KASG 231548Z 06007G13KT 10SM OVC010 19/18 A3008
KASG 231448Z 05005KT 10SM OVC007 17/17 A3007
KASG 231348Z 06006KT 10SM BKN008 OVC021 16/16 A3006
KASG 231248Z 04005KT 10SM SCT004 BKN008 OVC028 16/16 A3006
KASG 231148Z 06006KT 2SM BR OVC004 16/16 A3006
KASG 231048Z 09006KT 3SM BR OVC005 16/16 A3005
KASG 230148Z 07006KT 10SM OVC007 16/16 A3011
KASG 230048Z 09007KT 10SM OVC007 16/16 A3009
KASG 222348Z 07005G11KT 10SM OVC008 16/16 A3010
KASG 222248Z 06012KT 10SM OVC010 17/17 A3009
KASG 222148Z 05010KT 10SM OVC012 17/17 A3011
KASG 222048Z 06010KT 10SM OVC014 18/16 A3011
KASG 221948Z 06009KT 10SM OVC014 18/16 A3012
KASG 221848Z 06012KT 10SM OVC013 18/18 A3014